Latest Coastal Weather Observations for Mardie

IDW60701

Issued at 6:13 pm WST Sunday 4 December 2016 (issued every 10 minutes, with the page automatically refreshed every 10 minutes)

About coastal observations | Map of coastal stations | Coastal observations for WA | Marine services | Other Formats
Station Details ID: 005008 Name: MARDIE Lat: -21.19 Lon: 115.98 Height: 11.0 m
Data from the previous 72 hours. | See also: Recent months at Mardie
Date/Time
WST
Temp
°C
Wind Pressure Rain since
9am
mm
Weather Cloud Vis
km
Sea
Height
m
Swell
Dir  Spd
kts
Gust
kts
hPa Trend Height
m
Period
s
Dir
04/06:00pm 27.4 WNW 12 15 1007.0 - 0.0 - - - - - - -
04/05:30pm 27.6 WNW 12 16 1006.6 - 0.0 - - - - - - -
04/05:00pm 28.2 WNW 13 17 1006.5 - 0.0 - - - - - - -
04/04:30pm 28.3 NW 14 19 1006.1 - 0.0 - - - - - - -
04/04:00pm 28.8 WNW 15 19 1006.2 - 0.0 - - - - - - -
04/03:30pm 29.4 NW 13 17 1006.4 - 0.0 - - - - - - -
04/03:00pm 30.0 NW 14 19 1006.5 - 0.0 - - - - - - -
04/02:30pm 30.3 WNW 13 18 1006.6 - 0.0 - - - - - - -
04/02:00pm 30.4 NW 12 16 1006.7 - 0.0 - - - - - - -
04/01:30pm 31.1 NW 10 15 1006.9 - 0.0 - - - - - - -
04/01:00pm 30.1 NW 10 16 1007.2 - 0.0 - - - - - - -
04/12:30pm 30.7 WNW 9 14 1007.4 - 0.0 - - - - - - -
04/12:00pm 30.8 WNW 8 12 1007.5 - 0.0 - - - - - - -
04/11:30am 30.2 WNW 9 13 1007.8 - 0.0 - - - - - - -
04/11:00am 29.8 NW 8 11 1008.2 - 0.0 - - - - - - -
04/10:30am 29.1 WNW 7 11 1008.1 - 0.0 - - - - - - -
04/10:00am 29.2 WNW 7 10 1008.4 - 0.0 - - - - - - -
04/09:30am 28.8 W 4 8 1008.5 - 0.0 - - - - - - -
04/09:00am 27.2 WNW 3 7 1008.6 - 0.0 - - - - - - -
04/08:30am 25.7 WSW 3 8 1008.8 - 0.0 - - - - - - -
04/08:00am 24.6 WSW 5 9 1008.8 - 0.0 - - - - - - -
04/07:30am 23.5 SW 7 9 1008.8 - 0.0 - - - - - - -
04/07:00am 22.5 SW 8 11 1008.7 - 0.0 - - - - - - -
04/06:30am 22.1 SW 10 13 1008.5 - 0.0 - - - - - - -
04/06:00am 21.6 WSW 6 9 1008.5 - 0.0 - - - - - - -
04/05:30am 21.3 SW 8 12 1008.3 - 0.0 - - - - - - -
04/05:00am 21.5 WSW 8 11 1008.1 - 0.0 - - - - - - -
04/04:30am 21.4 WSW 6 9 1007.8 - 0.0 - - - - - - -
04/04:00am 21.4 WSW 5 7 1007.9 - 0.0 - - - - - - -
04/03:30am 21.8 WSW 7 9 1007.7 - 0.0 - - - - - - -
04/03:00am 22.1 WSW 8 11 1007.4 - 0.0 - - - - - - -
04/02:30am 22.4 WSW 6 8 1007.5 - 0.0 - - - - - - -
04/02:00am 22.8 WSW 6 8 1007.7 - 0.0 - - - - - - -
04/01:30am 23.3 WSW 7 9 1007.8 - 0.0 - - - - - - -
04/01:00am 23.7 WSW 5 7 1008.0 - 0.0 - - - - - - -
04/12:30am 24.2 WSW 5 7 1008.1 - 0.0 - - - - - - -
04/12:00am 24.8 WSW 7 10 1008.4 - 0.0 - - - - - - -
 
Date/Time
WST
Temp
°C
Wind Pressure Rain since
9am
mm
Weather Cloud Vis
km
Sea
Height
m
Swell
Dir  Spd
kts
Gust
kts
hPa Trend Height
m
Period
s
Dir
03/11:30pm 24.9 WSW 5 7 1008.5 - 0.0 - - - - - - -
03/11:00pm 25.3 W 7 9 1008.8 - 0.0 - - - - - - -
03/10:30pm 25.6 W 7 10 1008.9 - 0.0 - - - - - - -
03/10:00pm 25.5 W 6 8 1008.7 - 0.0 - - - - - - -
03/09:30pm 25.7 W 7 11 1008.5 - 0.0 - - - - - - -
03/09:00pm 25.8 W 9 12 1008.1 - 0.0 - - - - - - -
03/08:30pm 25.8 W 7 11 1008.0 - 0.0 - - - - - - -
03/08:00pm 25.9 WNW 10 13 1007.8 - 0.0 - - - - - - -
03/07:30pm 26.0 WNW 9 11 1007.5 - 0.0 - - - - - - -
03/07:00pm 26.3 WNW 9 13 1007.2 - 0.0 - - - - - - -
03/06:30pm 27.0 WNW 10 15 1007.0 - 0.0 - - - - - - -
03/06:00pm 27.8 WNW 13 18 1006.8 - 0.0 - - - - - - -
03/05:30pm 28.6 WNW 13 17 1006.5 - 0.0 - - - - - - -
03/05:00pm 29.7 WNW 13 17 1006.2 - 0.0 - - - - - - -
03/04:30pm 29.4 WNW 14 19 1006.0 - 0.0 - - - - - - -
03/04:00pm 30.2 WNW 13 17 1005.8 - 0.0 - - - - - - -
03/03:30pm 31.1 WNW 14 17 1005.9 - 0.0 - - - - - - -
03/03:00pm 31.2 WNW 12 17 1006.1 - 0.0 - - - - - - -
03/02:30pm 31.9 WNW 13 17 1006.1 - 0.0 - - - - - - -
03/02:00pm 32.1 WNW 13 17 1006.3 - 0.0 - - - - - - -
03/01:30pm 31.4 WNW 12 17 1006.6 - 0.0 - - - - - - -
03/01:00pm 31.0 WNW 13 18 1006.8 - 0.0 - - - - - - -
03/12:30pm 31.0 WNW 12 16 1007.1 - 0.0 - - - - - - -
03/12:00pm 31.6 WNW 11 15 1007.1 - 0.0 - - - - - - -
03/11:30am 30.9 WNW 10 13 1006.9 - 0.0 - - - - - - -
03/11:00am 30.7 WNW 11 15 1007.3 - 0.0 - - - - - - -
03/10:30am 31.0 W 8 12 1007.4 - 0.0 - - - - - - -
03/10:00am 30.7 W 9 12 1007.5 - 0.0 - - - - - - -
03/09:30am 29.8 W 6 9 1007.5 - 0.0 - - - - - - -
03/09:00am 28.0 SW 8 12 1007.7 - 0.0 - - - - - - -
03/08:30am 26.6 WSW 9 13 1007.5 - 0.0 - - - - - - -
03/08:00am 25.3 WSW 9 13 1008.4 - 0.0 - - - - - - -
03/07:30am 24.6 SW 9 12 1008.2 - 0.0 - - - - - - -
03/07:00am 23.6 SW 10 14 1008.0 - 0.0 - - - - - - -
03/06:30am 22.9 SW 10 14 1007.9 - 0.0 - - - - - - -
03/06:00am 21.8 SW 4 5 1007.5 - 0.0 - - - - - - -
03/05:30am 21.9 SW 4 6 1006.9 - 0.0 - - - - - - -
03/05:00am 22.2 WSW 6 8 1006.5 - 0.0 - - - - - - -
03/04:30am 22.2 WSW 5 6 1006.5 - 0.0 - - - - - - -
03/04:00am 22.7 SW 5 7 1006.3 - 0.0 - - - - - - -
03/03:30am 23.5 SW 8 11 1006.0 - 0.0 - - - - - - -
03/03:00am 24.1 WSW 7 9 1006.1 - 0.0 - - - - - - -
03/02:30am 24.4 WSW 7 10 1006.0 - 0.0 - - - - - - -
03/02:00am 24.9 WSW 8 12 1006.2 - 0.0 - - - - - - -
03/01:30am 25.0 W 6 8 1006.1 - 0.0 - - - - - - -
03/01:00am 25.2 W 6 8 1006.2 - 0.0 - - - - - - -
03/12:30am 25.3 W 6 8 1006.4 - 0.0 - - - - - - -
03/12:00am 25.4 W 6 8 1006.8 - 0.0 - - - - - - -
 
Date/Time
WST
Temp
°C
Wind Pressure Rain since
9am
mm
Weather Cloud Vis
km
Sea
Height
m
Swell
Dir  Spd
kts
Gust
kts
hPa Trend Height
m
Period
s
Dir
02/11:30pm 25.6 W 8 11 1006.7 - 0.0 - - - - - - -
02/11:00pm 25.7 W 7 11 1006.9 - 0.0 - - - - - - -
02/10:30pm 25.6 WNW 7 9 1006.8 - 0.0 - - - - - - -
02/10:00pm 25.7 W 6 9 1006.8 - 0.0 - - - - - - -
02/09:30pm 25.9 W 8 12 1006.6 - 0.0 - - - - - - -
02/09:00pm 26.1 W 8 12 1006.5 - 0.0 - - - - - - -
02/08:30pm 26.3 W 8 14 1006.3 - 0.0 - - - - - - -
02/08:00pm 26.4 WNW 10 15 1006.1 - 0.0 - - - - - - -
02/07:30pm 26.6 WNW 10 14 1005.9 - 0.0 - - - - - - -
02/07:00pm 27.0 WNW 9 15 1005.6 - 0.0 - - - - - - -
02/06:30pm 27.7 WNW 12 17 1005.3 - 0.0 - - - - - - -
02/06:00pm 28.4 WNW 15 19 1004.8 - 0.0 - - - - - - -
02/05:30pm 29.4 WNW 14 20 1004.5 - 0.0 - - - - - - -
02/05:00pm 29.9 WNW 15 20 1004.4 - 0.0 - - - - - - -
02/04:30pm 31.3 WNW 16 21 1004.3 - 0.0 - - - - - - -
02/04:00pm 32.3 WNW 16 21 1004.3 - 0.0 - - - - - - -
02/03:30pm 31.6 WNW 18 23 1004.5 - 0.0 - - - - - - -
02/03:00pm 31.4 WNW 18 24 1004.7 - 0.0 - - - - - - -
02/02:30pm 32.3 WNW 18 25 1004.9 - 0.0 - - - - - - -
02/02:00pm 32.3 WNW 16 20 1005.1 - 0.0 - - - - - - -
02/01:30pm 32.7 WNW 17 23 1005.4 - 0.0 - - - - - - -
02/01:00pm 32.4 WNW 17 23 1005.6 - 0.0 - - - - - - -
02/12:30pm 32.6 WNW 15 19 1005.6 - 0.0 - - - - - - -
02/12:00pm 32.6 WNW 13 20 1005.7 - 0.0 - - - - - - -
02/11:30am 32.1 WNW 12 16 1006.0 - 0.0 - - - - - - -
02/11:00am 32.8 W 9 14 1006.1 - 0.0 - - - - - - -
02/10:30am 31.4 W 8 11 1006.4 - 0.0 - - - - - - -
02/10:00am 30.7 WNW 8 12 1006.8 - 0.0 - - - - - - -
02/09:30am 31.1 WSW 6 10 1007.1 - 0.0 - - - - - - -
02/09:00am 29.5 SW 6 9 1007.2 - 0.0 - - - - - - -
02/08:30am 28.0 WSW 8 13 1007.1 - 0.0 - - - - - - -
02/08:00am 26.4 WSW 9 13 1007.1 - 0.0 - - - - - - -
02/07:30am 25.5 SW 7 10 1007.1 - 0.0 - - - - - - -
02/07:00am 24.1 WSW 11 14 1007.0 - 0.0 - - - - - - -
02/06:30am 23.4 WSW 10 15 1007.1 - 0.0 - - - - - - -
02/06:00am 22.9 WSW 6 9 1006.8 - 0.0 - - - - - - -
02/05:30am 22.6 WSW 6 8 1006.4 - 0.0 - - - - - - -
02/05:00am 22.9 WSW 5 8 1006.3 - 0.0 - - - - - - -
02/04:30am 23.1 SW 6 9 1006.0 - 0.0 - - - - - - -
02/04:00am 23.4 SW 6 9 1005.9 - 0.0 - - - - - - -
02/03:30am 23.8 SW 6 9 1005.9 - 0.0 - - - - - - -
02/03:00am 24.3 WSW 7 10 1005.8 - 0.0 - - - - - - -
02/02:30am 24.6 WSW 10 14 1005.5 - 0.0 - - - - - - -
02/02:00am 25.0 WSW 10 13 1005.6 - 0.0 - - - - - - -
02/01:30am 25.3 SW 9 14 1006.0 - 0.0 - - - - - - -
02/01:00am 25.7 WSW 10 12 1006.0 - 0.0 - - - - - - -
02/12:30am 26.4 WSW 12 18 1006.0 - 0.0 - - - - - - -
02/12:00am 26.7 W 11 14 1006.2 - 0.0 - - - - - - -
 
Date/Time
WST
Temp
°C
Wind Pressure Rain since
9am
mm
Weather Cloud Vis
km
Sea
Height
m
Swell
Dir  Spd
kts
Gust
kts
hPa Trend Height
m
Period
s
Dir
01/11:30pm 26.9 W 9 13 1006.5 - 0.0 - - - - - - -
01/11:00pm 27.2 W 9 13 1006.7 - 0.0 - - - - - - -
01/10:30pm 27.3 W 10 14 1006.7 - 0.0 - - - - - - -
01/10:00pm 27.1 W 9 14 1006.7 - 0.0 - - - - - - -
01/09:30pm 27.0 W 10 14 1006.5 - 0.0 - - - - - - -
01/09:00pm 27.3 W 10 14 1006.2 - 0.0 - - - - - - -
01/08:30pm 27.3 W 12 16 1006.1 - 0.0 - - - - - - -
01/08:00pm 27.5 W 12 17 1005.8 - 0.0 - - - - - - -
01/07:30pm 27.9 W 12 17 1005.4 - 0.0 - - - - - - -
01/07:00pm 28.6 W 11 15 1005.0 - 0.0 - - - - - - -
01/06:30pm 29.3 W 13 19 1004.8 - 0.0 - - - - - - -

Other Formats:

Comma delimited format used in spreadsheet applications
http://www.bom.gov.au/fwo/IDW60701/IDW60701.94306.axf

JavaScript Object Notation format (JSON) in row-major order
http://www.bom.gov.au/fwo/IDW60701/IDW60701.94306.json